Time;durP1;ratioP1;P1;durP2;ratioP2;P2;SDS_P1;SDS_P2;PMS_P1;PMS_P2;Temp;Humidity;BMP_temperature;BMP_pressure;BME280_temperature;BME280_humidity;BME280_pressure;Samples;Min_cycle;Max_cycle;Signal;HPM_P1;HPM_P2
2022/08/15 04:01:02;;;;;;;8.53;7.87;;;19.40;99.90;;;;;;5589436;23;20525;-70
2022/08/15 04:03:30;;;;;;;8.27;7.87;;;19.40;99.90;;;;;;4896282;29;20469;-70
2022/08/15 04:05:59;;;;;;;8.87;8.27;;;19.40;99.90;;;;;;4894743;29;20470;-70
2022/08/15 04:08:30;;;;;;;8.93;8.30;;;19.40;99.90;;;;;;4893504;29;20474;-70
2022/08/15 04:10:57;;;;;;;8.73;8.20;;;19.40;99.90;;;;;;4897677;29;20490;-70
2022/08/15 04:13:25;;;;;;;8.77;8.13;;;19.30;99.90;;;;;;4893990;29;20478;-70
2022/08/15 04:15:53;;;;;;;9.10;8.50;;;19.30;99.90;;;;;;4912088;23;20592;-71
2022/08/15 04:18:21;;;;;;;8.73;8.13;;;19.30;99.90;;;;;;4896610;29;20477;-68
2022/08/15 04:20:48;;;;;;;8.87;8.00;;;19.20;99.90;;;;;;4897425;29;20505;-69
2022/08/15 04:23:15;;;;;;;9.47;8.77;;;19.20;99.90;;;;;;4894364;29;20474;-68
2022/08/15 04:25:44;;;;;;;9.03;8.43;;;19.20;99.90;;;;;;4897269;29;20929;-69
2022/08/15 04:28:13;;;;;;;9.80;9.30;;;19.20;99.90;;;;;;4894524;29;20493;-70
2022/08/15 04:30:42;;;;;;;9.80;9.20;;;19.20;99.90;;;;;;4897613;29;20500;-70
2022/08/15 04:33:12;;;;;;;9.83;8.67;;;19.20;99.90;;;;;;4895325;29;20474;-69
2022/08/15 04:35:42;;;;;;;9.60;8.90;;;19.20;99.90;;;;;;4897181;29;20496;-70
2022/08/15 04:38:10;;;;;;;12.17;9.67;;;19.20;99.90;;;;;;4892652;29;20486;-70
2022/08/15 04:40:37;;;;;;;9.77;8.97;;;19.30;99.90;;;;;;4891826;29;20494;-69
2022/08/15 04:43:05;;;;;;;9.30;8.40;;;19.30;99.90;;;;;;4895677;29;20478;-69
2022/08/15 04:45:35;;;;;;;9.23;8.60;;;19.30;99.90;;;;;;4897309;29;20804;-69
2022/08/15 04:48:03;;;;;;;9.47;8.77;;;19.30;99.90;;;;;;4889250;29;20470;-69
2022/08/15 04:50:30;;;;;;;8.53;7.73;;;19.60;99.90;;;;;;4896888;29;20486;-68
2022/08/15 04:52:59;;;;;;;8.13;7.53;;;20.10;99.90;;;;;;4891056;29;20499;-69
2022/08/15 04:55:28;;;;;;;7.83;7.33;;;20.50;99.90;;;;;;4897362;29;20498;-69
2022/08/15 04:57:55;;;;;;;7.33;6.83;;;20.90;99.90;;;;;;4893983;29;20472;-70
2022/08/15 05:00:25;;;;;;;7.97;7.37;;;21.30;99.90;;;;;;4894881;29;20480;-69
2022/08/15 05:03:00;;;;;;;7.80;7.40;;;21.30;99.90;;;;;;4893607;29;20477;-70
2022/08/15 05:05:28;;;;;;;7.90;7.40;;;21.30;99.90;;;;;;4895023;29;20511;-70
2022/08/15 05:07:55;;;;;;;8.33;7.73;;;21.30;99.90;;;;;;4893808;29;20472;-70
2022/08/15 05:10:23;;;;;;;8.90;8.40;;;21.20;99.90;;;;;;4896654;29;20498;-69
2022/08/15 05:12:50;;;;;;;9.17;8.50;;;21.10;99.90;;;;;;4894946;29;21102;-71
2022/08/15 05:15:19;;;;;;;10.20;9.23;;;21.00;99.90;;;;;;4896901;29;20504;-70
2022/08/15 05:17:47;;;;;;;9.20;8.63;;;20.90;99.90;;;;;;4896309;29;20472;-70
2022/08/15 05:20:15;;;;;;;9.73;8.97;;;20.90;99.90;;;;;;4898506;29;20497;-71
2022/08/15 05:22:53;;;;;;;9.23;8.57;;;20.80;99.90;;;;;;4893349;29;20472;-70
2022/08/15 05:25:20;;;;;;;9.73;9.03;;;20.70;99.90;;;;;;4895092;29;20585;-70
2022/08/15 05:27:48;;;;;;;8.83;8.33;;;20.70;99.90;;;;;;4893373;29;20477;-71
2022/08/15 05:30:16;;;;;;;8.93;8.17;;;20.60;99.90;;;;;;4896271;29;20525;-70
2022/08/15 05:32:43;;;;;;;9.47;8.60;;;20.60;99.90;;;;;;4893018;29;20499;-71
2022/08/15 05:35:10;;;;;;;8.70;8.00;;;20.60;99.90;;;;;;4894286;29;20498;-70
2022/08/15 05:37:37;;;;;;;10.93;10.17;;;20.60;99.90;;;;;;4894871;29;20490;-70
2022/08/15 05:40:05;;;;;;;9.70;8.97;;;20.60;99.90;;;;;;4892553;29;20864;-70
2022/08/15 05:42:41;;;;;;;9.70;9.10;;;20.60;99.90;;;;;;4892377;29;20625;-69
2022/08/15 05:45:15;;;;;;;10.47;9.77;;;20.60;99.90;;;;;;4895471;29;20587;-70
2022/08/15 05:47:48;;;;;;;9.80;9.10;;;20.60;99.90;;;;;;4889236;29;20474;-70
2022/08/15 05:50:22;;;;;;;9.37;8.67;;;20.70;99.90;;;;;;4890305;29;20494;-70
2022/08/15 05:52:53;;;;;;;10.10;9.50;;;20.70;99.90;;;;;;4895699;29;20471;-70
2022/08/15 05:55:29;;;;;;;10.10;9.30;;;20.70;99.90;;;;;;4894764;29;20857;-70
2022/08/15 05:58:18;;;;;;;9.60;8.97;;;20.80;99.90;;;;;;4895953;29;20473;-70
2022/08/15 06:00:51;;;;;;;11.17;10.17;;;20.80;99.90;;;;;;4892917;29;20469;-70
2022/08/15 06:03:23;;;;;;;10.00;9.40;;;20.90;99.90;;;;;;4892174;29;20976;-69
2022/08/15 06:05:54;;;;;;;10.53;9.93;;;21.00;99.90;;;;;;4894691;29;20500;-70
2022/08/15 06:08:25;;;;;;;11.70;10.80;;;21.10;99.90;;;;;;4892285;29;20488;-70
2022/08/15 06:10:55;;;;;;;12.40;11.23;;;21.20;99.90;;;;;;4892690;29;20499;-71
2022/08/15 06:13:27;;;;;;;12.50;11.70;;;21.40;99.90;;;;;;4892135;29;20859;-70
2022/08/15 06:16:00;;;;;;;11.50;10.23;;;21.80;99.90;;;;;;4894709;29;20507;-71
2022/08/15 06:18:29;;;;;;;10.33;9.50;;;22.30;99.90;;;;;;4890207;29;20482;-70
2022/08/15 06:21:05;;;;;;;9.80;9.13;;;23.20;99.90;;;;;;4894760;29;20475;-71
2022/08/15 06:23:46;;;;;;;9.93;9.33;;;24.10;99.90;;;;;;4894003;29;20490;-71
2022/08/15 06:26:22;;;;;;;8.47;7.97;;;25.00;99.90;;;;;;4894233;29;20911;-70
2022/08/15 06:29:15;;;;;;;8.53;7.93;;;25.70;99.90;;;;;;4891615;29;20476;-70
2022/08/15 06:31:48;;;;;;;9.20;8.53;;;26.50;99.90;;;;;;4892870;29;20492;-69
2022/08/15 06:34:23;;;;;;;8.75;8.23;;;27.20;99.90;;;;;;4892319;29;20857;-68
2022/08/15 06:36:56;;;;;;;8.17;7.77;;;27.90;99.90;;;;;;4888812;29;20245;-68
2022/08/15 06:39:33;;;;;;;8.07;7.47;;;28.30;99.90;;;;;;4892048;29;20474;-69
2022/08/15 06:42:04;;;;;;;8.57;7.97;;;28.70;99.90;;;;;;4894554;29;20550;-69
2022/08/15 06:44:33;;;;;;;7.60;7.30;;;29.20;99.90;;;;;;4893858;29;20554;-69
2022/08/15 06:47:03;;;;;;;7.83;7.23;;;29.40;99.90;;;;;;4890140;29;20507;-69
2022/08/15 06:49:33;;;;;;;7.77;7.27;;;30.00;99.90;;;;;;4894685;29;20481;-69
2022/08/15 06:52:00;;;;;;;7.90;7.50;;;30.50;99.90;;;;;;4892281;29;20506;-69
2022/08/15 06:54:29;;;;;;;8.47;7.77;;;30.90;99.90;;;;;;4894098;29;20795;-69
2022/08/15 06:57:01;;;;;;;8.20;7.60;;;31.20;99.90;;;;;;4890301;29;20494;-69
2022/08/15 06:59:36;;;;;;;8.13;7.53;;;31.40;99.90;;;;;;4891320;29;20486;-70
2022/08/15 07:02:15;;;;;;;8.03;7.63;;;31.50;99.90;;;;;;4890782;29;20470;-69
2022/08/15 07:04:56;;;;;;;8.13;7.63;;;31.60;99.90;;;;;;4891464;29;20482;-70
2022/08/15 07:07:35;;;;;;;8.40;7.90;;;32.00;99.90;;;;;;4890632;29;20484;-68
2022/08/15 07:10:09;;;;;;;9.30;8.80;;;32.10;99.90;;;;;;4888958;29;22202;-67
2022/08/15 07:12:45;;;;;;;9.80;8.87;;;31.40;99.90;;;;;;4891260;29;20486;-68
2022/08/15 07:15:16;;;;;;;10.20;9.40;;;30.80;99.90;;;;;;4892953;29;20496;-68
2022/08/15 07:17:49;;;;;;;8.97;8.47;;;30.60;99.90;;;;;;4893255;29;20482;-69
2022/08/15 07:20:17;;;;;;;9.90;8.93;;;30.40;99.90;;;;;;4894358;29;20493;-68
2022/08/15 07:22:43;;;;;;;9.87;9.17;;;30.30;99.90;;;;;;4892650;29;20470;-68
2022/08/15 07:25:12;;;;;;;10.17;9.57;;;30.00;99.90;;;;;;4897543;29;20497;-69
2022/08/15 07:27:39;;;;;;;9.63;9.00;;;30.00;99.90;;;;;;4896831;29;20474;-69
2022/08/15 07:30:20;;;;;;;8.63;8.23;;;30.30;99.90;;;;;;4898148;29;20569;-67
2022/08/15 07:32:52;;;;;;;8.53;8.10;;;30.50;99.90;;;;;;4891524;29;20478;-69
2022/08/15 07:35:24;;;;;;;10.00;9.40;;;31.00;99.90;;;;;;4898225;29;20497;-69
2022/08/15 07:37:55;;;;;;;9.33;8.83;;;31.00;99.90;;;;;;4897660;29;20585;-69
2022/08/15 07:40:27;;;;;;;9.50;8.67;;;30.90;99.90;;;;;;4897677;29;20549;-69
2022/08/15 07:42:54;;;;;;;9.80;9.27;;;30.80;99.90;;;;;;4895965;29;20478;-69
2022/08/15 07:45:29;;;;;;;8.73;8.40;;;30.50;99.90;;;;;;4897912;29;20501;-68
2022/08/15 07:47:59;;;;;;;10.40;9.80;;;30.10;99.90;;;;;;4896851;29;20497;-68
2022/08/15 07:50:37;;;;;;;10.70;10.07;;;29.90;99.90;;;;;;4896855;29;20473;-67
2022/08/15 07:53:13;;;;;;;10.13;9.60;;;29.70;99.90;;;;;;4895531;29;20495;-69
2022/08/15 07:55:40;;;;;;;10.73;10.00;;;29.30;99.90;;;;;;4898444;29;20494;-69
2022/08/15 07:58:17;;;;;;;11.43;10.63;;;28.90;99.90;;;;;;4893516;29;20575;-67
2022/08/15 08:00:52;;;;;;;10.60;9.97;;;28.40;99.90;;;;;;4891262;29;20455;-68
2022/08/15 08:03:24;;;;;;;10.93;10.13;;;28.10;99.90;;;;;;4894929;29;20471;-69
2022/08/15 08:05:56;;;;;;;10.93;9.90;;;27.90;99.90;;;;;;4895295;29;20498;-69
2022/08/15 08:08:29;;;;;;;10.43;9.73;;;27.90;99.90;;;;;;4892817;29;20523;-69
2022/08/15 08:11:01;;;;;;;9.63;9.00;;;27.80;99.90;;;;;;4898385;29;20483;-69
2022/08/15 08:13:38;;;;;;;10.00;9.40;;;27.80;99.90;;;;;;4896787;29;20968;-69
2022/08/15 08:16:14;;;;;;;11.37;10.70;;;27.80;99.90;;;;;;4902704;29;20495;-68
2022/08/15 08:18:51;;;;;;;11.00;10.30;;;27.80;99.90;;;;;;4897656;29;20853;-68
2022/08/15 08:21:21;;;;;;;11.13;10.37;;;27.90;99.90;;;;;;4904461;29;21023;-68
2022/08/15 08:23:51;;;;;;;10.90;10.00;;;27.90;99.90;;;;;;4892476;29;20468;-69
2022/08/15 08:26:30;;;;;;;10.93;10.23;;;27.90;99.90;;;;;;4896485;29;20487;-68
2022/08/15 08:29:06;;;;;;;10.77;10.03;;;27.90;99.90;;;;;;4896607;29;20837;-69
2022/08/15 08:31:40;;;;;;;10.73;9.77;;;27.90;99.90;;;;;;4893126;29;20996;-68
2022/08/15 08:34:18;;;;;;;11.50;10.60;;;28.00;99.90;;;;;;4896247;29;20467;-69
2022/08/15 08:36:55;;;;;;;10.70;10.03;;;28.00;99.90;;;;;;4890373;29;20483;-69
2022/08/15 08:39:31;;;;;;;9.83;9.23;;;28.10;99.90;;;;;;4894990;29;20472;-69
2022/08/15 08:42:05;;;;;;;11.80;10.80;;;28.10;99.90;;;;;;4897691;29;20918;-70
2022/08/15 08:44:43;;;;;;;11.27;10.50;;;28.10;99.90;;;;;;4892367;29;20476;-69
2022/08/15 08:47:25;;;;;;;9.70;9.10;;;28.20;99.90;;;;;;4893875;29;20514;-70
2022/08/15 08:50:08;;;;;;;11.03;10.33;;;28.30;99.90;;;;;;4891648;29;20503;-69
2022/08/15 08:52:41;;;;;;;10.73;10.13;;;28.40;99.90;;;;;;4896763;29;20540;-69
2022/08/15 08:55:11;;;;;;;11.20;10.57;;;28.40;99.90;;;;;;4893209;29;20847;-69
2022/08/15 08:57:46;;;;;;;11.60;10.80;;;28.40;99.90;;;;;;4893661;29;20473;-69
2022/08/15 09:00:16;;;;;;;11.10;10.30;;;28.40;99.90;;;;;;4893825;29;20503;-68
2022/08/15 09:02:47;;;;;;;9.73;9.10;;;28.40;99.90;;;;;;4896328;29;20468;-69
2022/08/15 09:05:29;;;;;;;10.93;10.30;;;28.40;99.90;;;;;;4891256;29;20499;-68
2022/08/15 09:08:00;;;;;;;10.57;9.87;;;28.40;99.90;;;;;;4892169;29;20479;-69
2022/08/15 09:10:32;;;;;;;10.50;9.77;;;28.30;99.90;;;;;;4892052;29;20951;-69
2022/08/15 09:15:48;;;;;;;11.00;10.30;;;28.40;99.90;;;;;;4893962;29;20615;-70
2022/08/15 09:18:19;;;;;;;9.87;9.13;;;28.50;99.90;;;;;;4892869;29;20476;-69
2022/08/15 09:20:48;;;;;;;10.33;9.60;;;28.50;99.90;;;;;;4896733;29;20483;-69
2022/08/15 09:23:16;;;;;;;9.77;9.17;;;28.50;99.90;;;;;;4900478;29;21019;-69
2022/08/15 09:25:59;;;;;;;13.60;10.90;;;28.60;99.90;;;;;;4894171;29;20491;-70
2022/08/15 09:28:32;;;;;;;11.20;10.43;;;28.70;99.90;;;;;;4893993;29;20475;-69
2022/08/15 09:31:05;;;;;;;10.57;9.87;;;28.70;99.90;;;;;;4896062;29;20488;-69
2022/08/15 09:33:55;;;;;;;11.40;10.70;;;28.80;99.90;;;;;;4894642;29;21104;-68
2022/08/15 09:36:37;;;;;;;11.13;10.17;;;28.90;99.90;;;;;;4895234;29;20491;-69
2022/08/15 09:39:23;;;;;;;10.13;9.53;;;29.00;99.90;;;;;;4891342;29;20507;-69
2022/08/15 09:42:03;;;;;;;10.53;9.70;;;28.90;99.90;;;;;;4893682;29;20491;-70
2022/08/15 09:44:58;;;;;;;11.10;10.23;;;28.90;99.90;;;;;;4891475;29;20479;-69
2022/08/15 09:47:55;;;;;;;9.83;9.17;;;29.00;99.90;;;;;;4894082;29;20539;-69
2022/08/15 09:50:42;;;;;;;9.23;8.63;;;29.00;99.90;;;;;;4893068;29;21024;-68
2022/08/15 09:53:20;;;;;;;9.97;9.07;;;29.00;99.90;;;;;;4892275;29;20535;-68
2022/08/15 09:55:49;;;;;;;9.77;8.87;;;29.10;99.90;;;;;;4888322;29;20495;-69
2022/08/15 09:58:20;;;;;;;10.70;9.93;;;29.20;99.90;;;;;;4886283;29;20966;-69
2022/08/15 10:00:59;;;;;;;11.30;10.50;;;29.20;99.90;;;;;;4894128;29;20893;-69
2022/08/15 10:03:51;;;;;;;9.20;8.70;;;29.20;99.90;;;;;;4890130;29;20885;-69
2022/08/15 10:06:20;;;;;;;8.50;8.00;;;29.30;99.90;;;;;;4891271;29;20504;-70
2022/08/15 10:09:21;;;;;;;9.97;9.10;;;29.40;99.90;;;;;;4895614;29;20844;-70
2022/08/15 10:12:11;;;;;;;9.50;8.90;;;29.40;99.90;;;;;;4888550;29;20491;-70
2022/08/15 10:15:02;;;;;;;9.97;9.40;;;29.40;99.90;;;;;;4897314;29;20521;-70
2022/08/15 10:17:44;;;;;;;9.43;8.70;;;29.50;99.90;;;;;;4892215;29;20967;-70
2022/08/15 10:20:53;;;;;;;9.73;9.13;;;29.60;99.90;;;;;;4894877;29;20504;-70
2022/08/15 10:23:26;;;;;;;9.27;8.73;;;29.70;99.90;;;;;;4876845;29;20476;-69
2022/08/15 10:26:15;;;;;;;8.70;8.10;;;29.70;99.90;;;;;;4891071;29;20543;-68
2022/08/15 10:29:02;;;;;;;9.90;9.20;;;29.70;99.90;;;;;;4890062;29;20472;-70
2022/08/15 10:31:37;;;;;;;9.63;8.90;;;29.70;99.90;;;;;;4890837;29;20496;-69
2022/08/15 10:34:04;;;;;;;9.67;9.07;;;29.80;99.90;;;;;;4889034;29;20805;-69
2022/08/15 10:36:35;;;;;;;9.10;8.50;;;29.90;99.90;;;;;;4893314;29;20557;-68
2022/08/15 10:39:16;;;;;;;10.27;9.67;;;29.90;99.90;;;;;;4891624;29;20480;-68
2022/08/15 10:41:56;;;;;;;9.90;9.20;;;29.90;99.90;;;;;;4888048;29;20472;-69
2022/08/15 10:44:41;;;;;;;11.10;10.07;;;29.90;99.90;;;;;;4892141;29;20485;-69
2022/08/15 10:47:19;;;;;;;9.73;9.13;;;29.90;99.90;;;;;;4889496;29;20992;-70
2022/08/15 10:49:58;;;;;;;10.17;9.17;;;30.00;99.90;;;;;;4892824;29;20467;-69
2022/08/15 10:52:38;;;;;;;10.27;9.73;;;30.20;99.50;;;;;;4892944;29;20543;-70
2022/08/15 10:55:23;;;;;;;9.73;9.10;;;30.30;99.90;;;;;;4889771;29;20504;-69
2022/08/15 10:57:55;;;;;;;9.70;9.10;;;30.30;99.70;;;;;;4891445;29;20820;-69
2022/08/15 11:00:39;;;;;;;10.17;9.40;;;30.40;99.20;;;;;;4890008;29;20566;-69
2022/08/15 11:03:11;;;;;;;10.90;10.00;;;30.40;98.80;;;;;;4893541;29;20837;-69
2022/08/15 11:05:38;;;;;;;10.30;9.50;;;30.40;99.10;;;;;;4893284;29;20902;-69
2022/08/15 11:08:13;;;;;;;9.00;8.40;;;30.30;98.40;;;;;;4892540;29;20699;-69
2022/08/15 11:10:40;;;;;;;10.37;9.57;;;30.20;98.40;;;;;;4892896;29;20812;-70
2022/08/15 11:13:12;;;;;;;9.87;9.17;;;30.20;99.40;;;;;;4891852;29;20491;-69
2022/08/15 11:15:47;;;;;;;9.50;8.90;;;30.10;99.30;;;;;;4891830;29;20495;-69
2022/08/15 11:18:23;;;;;;;9.67;8.97;;;30.00;99.70;;;;;;4891060;29;20479;-69
2022/08/15 11:20:52;;;;;;;10.90;10.20;;;30.00;99.90;;;;;;4890747;29;20474;-69
2022/08/15 11:23:32;;;;;;;9.70;9.10;;;30.00;99.60;;;;;;4892137;29;20842;-69
2022/08/15 11:26:00;;;;;;;9.63;9.10;;;29.90;99.80;;;;;;4890153;29;20509;-68
2022/08/15 11:28:30;;;;;;;10.37;9.50;;;29.80;99.80;;;;;;4890084;29;20472;-70
2022/08/15 11:31:05;;;;;;;10.13;9.50;;;29.80;99.80;;;;;;4894169;29;20486;-70
2022/08/15 11:33:41;;;;;;;10.53;9.57;;;29.70;99.80;;;;;;4892013;29;21003;-70
2022/08/15 11:36:12;;;;;;;9.63;9.03;;;29.60;99.80;;;;;;4895352;29;20483;-69
2022/08/15 11:38:44;;;;;;;10.43;9.73;;;29.60;99.90;;;;;;4893139;29;20476;-68
2022/08/15 11:41:20;;;;;;;10.87;9.93;;;29.60;99.90;;;;;;4893886;29;20476;-70
2022/08/15 11:43:50;;;;;;;10.37;9.57;;;29.70;99.90;;;;;;4892336;29;20486;-70
2022/08/15 11:46:18;;;;;;;11.80;10.93;;;29.70;99.90;;;;;;4894750;29;20496;-70
2022/08/15 11:48:49;;;;;;;9.63;9.10;;;29.70;99.90;;;;;;4893228;29;20468;-70
2022/08/15 11:51:26;;;;;;;10.57;9.80;;;29.70;99.90;;;;;;4893368;29;20991;-69
2022/08/15 11:54:07;;;;;;;10.67;9.80;;;29.60;99.90;;;;;;4890818;29;20467;-69
2022/08/15 11:56:45;;;;;;;10.07;9.47;;;29.60;99.90;;;;;;4894705;29;20854;-70
2022/08/15 11:59:21;;;;;;;15.13;10.17;;;29.60;99.90;;;;;;4887572;29;20476;-70
2022/08/15 12:02:18;;;;;;;9.90;9.30;;;29.60;99.90;;;;;;4888457;29;20467;-70
2022/08/15 12:04:47;;;;;;;10.57;9.93;;;29.50;99.90;;;;;;4891151;29;20472;-69
2022/08/15 12:07:17;;;;;;;10.40;9.60;;;29.50;99.90;;;;;;4895123;29;20487;-70
2022/08/15 12:09:55;;;;;;;10.93;10.17;;;29.50;99.90;;;;;;4898884;29;20471;-70
2022/08/15 12:12:31;;;;;;;10.43;9.83;;;29.40;99.90;;;;;;4901035;29;20589;-69
2022/08/15 12:15:09;;;;;;;10.67;9.87;;;29.50;99.90;;;;;;4898237;29;20558;-70
2022/08/15 12:17:36;;;;;;;10.70;10.00;;;29.40;99.90;;;;;;4895841;29;20475;-70
2022/08/15 12:20:04;;;;;;;10.10;9.60;;;29.40;99.90;;;;;;4898707;29;20502;-70
2022/08/15 12:22:35;;;;;;;10.50;9.80;;;29.40;99.90;;;;;;4899381;29;20463;-68
2022/08/15 12:25:03;;;;;;;10.33;9.60;;;29.30;99.90;;;;;;4895211;29;20479;-68
2022/08/15 12:27:30;;;;;;;10.23;9.43;;;29.30;99.90;;;;;;4895148;29;20595;-68
2022/08/15 12:29:56;;;;;;;11.30;10.50;;;29.30;99.90;;;;;;4889925;29;20488;-68
2022/08/15 12:32:25;;;;;;;10.53;9.83;;;29.30;99.90;;;;;;4892613;29;20500;-69
2022/08/15 12:34:54;;;;;;;10.60;9.57;;;29.40;99.90;;;;;;4897824;29;20479;-69
2022/08/15 12:37:25;;;;;;;11.10;10.20;;;29.40;99.90;;;;;;4894296;29;20655;-69
2022/08/15 12:39:54;;;;;;;11.77;10.83;;;29.40;99.90;;;;;;4897302;29;20467;-68
2022/08/15 12:42:23;;;;;;;10.63;9.63;;;29.20;99.90;;;;;;4892819;29;20472;-68
2022/08/15 12:44:52;;;;;;;11.23;10.43;;;29.10;99.90;;;;;;4897778;29;20472;-69
2022/08/15 12:47:20;;;;;;;10.00;9.37;;;29.20;99.90;;;;;;4893591;29;20472;-68
2022/08/15 12:49:49;;;;;;;11.00;10.40;;;29.30;99.90;;;;;;4896862;29;20570;-68
2022/08/15 12:52:19;;;;;;;11.50;10.50;;;29.50;99.90;;;;;;4896861;29;20508;-69
2022/08/15 12:54:45;;;;;;;9.70;9.10;;;29.60;99.90;;;;;;4895753;29;20834;-68
2022/08/15 12:57:12;;;;;;;10.20;9.43;;;29.70;99.90;;;;;;4894568;29;20488;-68
2022/08/15 12:59:39;;;;;;;10.60;10.00;;;29.90;99.90;;;;;;4895224;29;20480;-69
2022/08/15 13:02:07;;;;;;;11.00;10.03;;;30.00;99.90;;;;;;4895467;29;20479;-69
2022/08/15 13:04:33;;;;;;;9.97;9.20;;;30.10;99.70;;;;;;4897146;29;20479;-69
2022/08/15 13:07:01;;;;;;;9.63;9.03;;;30.20;99.00;;;;;;4894203;29;20492;-69
2022/08/15 13:09:33;;;;;;;9.73;9.13;;;30.40;97.90;;;;;;4894943;29;20535;-69
2022/08/15 13:12:01;;;;;;;10.67;9.97;;;30.60;98.30;;;;;;4893128;29;20487;-67
2022/08/15 13:14:28;;;;;;;9.80;9.30;;;30.70;97.80;;;;;;4894954;29;20563;-68
2022/08/15 13:16:55;;;;;;;10.77;10.17;;;30.80;97.80;;;;;;4895454;29;20511;-66
2022/08/15 13:19:24;;;;;;;10.40;9.63;;;30.80;98.30;;;;;;4895298;29;20468;-68
2022/08/15 13:24:38;;;;;;;9.77;9.27;;;30.90;99.10;;;;;;4895248;29;20466;-67
2022/08/15 13:27:06;;;;;;;10.17;9.40;;;31.00;98.10;;;;;;4895339;29;20519;-68
2022/08/15 13:29:33;;;;;;;10.77;10.10;;;31.30;96.20;;;;;;4896563;29;20468;-68
2022/08/15 13:32:02;;;;;;;9.60;9.00;;;31.30;96.10;;;;;;4893122;29;20480;-67
2022/08/15 13:34:30;;;;;;;8.83;8.33;;;31.30;94.90;;;;;;4894595;29;20563;-69
2022/08/15 13:36:57;;;;;;;8.20;7.77;;;31.20;94.00;;;;;;4894245;29;20487;-68
2022/08/15 13:39:31;;;;;;;9.90;9.27;;;31.20;95.10;;;;;;4894913;29;20475;-68
2022/08/15 13:41:59;;;;;;;9.80;9.23;;;31.10;96.30;;;;;;4897582;29;20471;-69
2022/08/15 13:44:27;;;;;;;9.83;9.30;;;31.00;96.60;;;;;;4895638;29;20465;-69
2022/08/15 13:46:54;;;;;;;10.50;9.70;;;30.90;96.80;;;;;;4897333;29;20482;-67
2022/08/15 13:49:22;;;;;;;9.03;8.53;;;30.90;97.00;;;;;;4895695;29;20468;-68
2022/08/15 13:51:52;;;;;;;11.17;10.47;;;30.80;97.50;;;;;;4896078;29;20817;-70
2022/08/15 13:54:22;;;;;;;9.77;9.20;;;30.90;97.00;;;;;;4895660;29;20495;-71
2022/08/15 13:56:50;;;;;;;10.07;9.30;;;31.10;96.80;;;;;;4896825;29;20570;-70
2022/08/15 13:59:19;;;;;;;9.70;9.10;;;31.30;96.50;;;;;;4894985;29;20487;-69
2022/08/15 14:01:48;;;;;;;8.93;8.53;;;31.40;95.50;;;;;;4896789;29;20996;-69
2022/08/15 14:04:25;;;;;;;9.93;9.20;;;31.50;95.10;;;;;;4894647;29;20906;-68
2022/08/15 14:06:53;;;;;;;9.67;8.97;;;31.40;95.00;;;;;;4896931;29;20904;-69
2022/08/15 14:09:21;;;;;;;9.03;8.53;;;31.60;94.70;;;;;;4894796;29;20587;-68
2022/08/15 14:11:48;;;;;;;8.60;8.10;;;31.60;94.60;;;;;;4896529;29;20496;-69
2022/08/15 14:14:15;;;;;;;9.10;8.50;;;31.80;95.40;;;;;;4891914;29;20493;-68
2022/08/15 14:16:45;;;;;;;10.00;9.03;;;31.80;95.10;;;;;;4892708;29;20510;-69
2022/08/15 14:19:13;;;;;;;9.33;8.73;;;31.80;95.10;;;;;;4893975;29;20483;-70
2022/08/15 14:21:40;;;;;;;9.70;9.00;;;31.80;95.40;;;;;;4896507;29;20547;-70
2022/08/15 14:24:07;;;;;;;9.10;8.60;;;31.80;95.20;;;;;;4894864;29;20463;-69
2022/08/15 14:26:37;;;;;;;9.73;9.13;;;31.70;95.00;;;;;;4896187;29;20492;-69
2022/08/15 14:29:06;;;;;;;10.33;9.63;;;31.60;95.50;;;;;;4894666;29;20478;-69
2022/08/15 14:31:33;;;;;;;8.50;8.00;;;31.50;95.90;;;;;;4894833;29;20476;-70
2022/08/15 14:34:01;;;;;;;9.93;9.37;;;31.50;96.10;;;;;;4894718;29;20500;-68
2022/08/15 14:36:29;;;;;;;9.53;8.93;;;31.50;95.60;;;;;;4895889;29;20568;-68
2022/08/15 14:38:56;;;;;;;8.83;8.30;;;31.40;95.60;;;;;;4894070;29;20479;-69
2022/08/15 14:41:24;;;;;;;9.40;8.80;;;31.30;95.30;;;;;;4897405;29;20608;-70
2022/08/15 14:43:50;;;;;;;8.93;8.17;;;31.10;96.30;;;;;;4895164;29;20479;-70
2022/08/15 14:46:18;;;;;;;9.83;9.30;;;30.80;96.70;;;;;;4892022;29;20492;-68
2022/08/15 14:48:44;;;;;;;9.37;8.80;;;30.70;96.30;;;;;;4891065;29;20478;-69
2022/08/15 14:51:16;;;;;;;9.93;9.33;;;30.60;97.20;;;;;;4889437;29;20472;-69
2022/08/15 14:53:43;;;;;;;9.87;9.07;;;30.50;97.80;;;;;;4892779;29;20495;-69
2022/08/15 14:56:10;;;;;;;8.67;8.13;;;30.40;97.50;;;;;;4892757;29;20491;-68
2022/08/15 14:58:37;;;;;;;10.30;9.70;;;30.30;98.10;;;;;;4888558;29;20495;-70
2022/08/15 15:01:04;;;;;;;10.40;9.70;;;30.10;98.90;;;;;;4890928;29;20476;-71
2022/08/15 15:03:32;;;;;;;10.50;9.80;;;29.90;99.70;;;;;;4889937;29;20495;-69
2022/08/15 15:06:00;;;;;;;10.03;9.43;;;29.60;99.90;;;;;;4891799;29;20567;-69
2022/08/15 15:08:28;;;;;;;10.40;9.47;;;29.50;99.90;;;;;;4890230;29;20463;-68
2022/08/15 15:10:56;;;;;;;9.77;9.00;;;29.30;99.90;;;;;;4893454;29;20472;-70
2022/08/15 15:13:23;;;;;;;10.63;9.67;;;29.20;99.90;;;;;;4893674;29;20491;-70
2022/08/15 15:15:52;;;;;;;9.43;8.70;;;29.10;99.90;;;;;;4891198;29;20588;-69
2022/08/15 15:18:25;;;;;;;10.37;9.47;;;28.70;99.90;;;;;;4894385;29;20486;-70
2022/08/15 15:20:56;;;;;;;8.87;8.27;;;28.30;99.90;;;;;;4891404;29;20659;-70
2022/08/15 15:23:23;;;;;;;8.33;7.73;;;27.70;99.90;;;;;;4893821;29;20819;-71
2022/08/15 15:25:51;;;;;;;9.00;8.23;;;27.10;99.90;;;;;;4894640;29;21036;-70
2022/08/15 15:28:21;;;;;;;7.37;6.87;;;26.60;99.90;;;;;;4893079;29;20487;-70
2022/08/15 15:30:48;;;;;;;7.87;7.37;;;26.30;99.90;;;;;;4894458;29;20487;-70
2022/08/15 15:33:15;;;;;;;7.67;7.10;;;25.80;99.90;;;;;;4895029;29;20496;-71
2022/08/15 15:35:42;;;;;;;7.50;6.77;;;25.60;99.90;;;;;;4893690;29;20498;-71
2022/08/15 15:38:09;;;;;;;7.90;6.77;;;25.50;99.90;;;;;;4889150;29;21134;-70
2022/08/15 15:40:36;;;;;;;8.33;7.80;;;25.30;99.90;;;;;;4893658;29;20514;-70
2022/08/15 15:43:04;;;;;;;6.57;5.97;;;25.10;99.90;;;;;;4894984;29;20475;-70
2022/08/15 15:45:33;;;;;;;7.93;6.97;;;24.70;99.90;;;;;;4896752;29;20522;-72
2022/08/15 15:48:01;;;;;;;7.83;7.23;;;24.20;99.90;;;;;;4899087;29;20473;-70
2022/08/15 15:50:28;;;;;;;8.40;7.80;;;23.90;99.90;;;;;;4896577;29;20581;-71
2022/08/15 15:52:59;;;;;;;8.87;7.97;;;23.50;99.90;;;;;;4896263;29;20481;-71
2022/08/15 15:55:26;;;;;;;9.67;8.73;;;23.10;99.90;;;;;;4895185;29;21009;-71
2022/08/15 15:57:54;;;;;;;9.73;8.80;;;22.80;99.90;;;;;;4892842;29;20484;-70
2022/08/15 16:00:23;;;;;;;10.43;9.43;;;22.50;99.90;;;;;;4897757;29;20560;-71
2022/08/15 16:02:54;;;;;;;10.20;9.30;;;22.20;99.90;;;;;;4891601;29;20490;-72
2022/08/15 16:05:24;;;;;;;9.73;8.87;;;21.90;99.90;;;;;;4890319;29;20507;-72
2022/08/15 16:07:51;;;;;;;11.33;10.13;;;21.70;99.90;;;;;;4897122;29;20498;-70
2022/08/15 16:10:25;;;;;;;12.53;11.30;;;21.70;99.90;;;;;;4896644;29;20483;-71
2022/08/15 16:12:55;;;;;;;12.20;10.40;;;21.70;99.90;;;;;;4897677;29;20818;-71
2022/08/15 16:15:29;;;;;;;13.60;11.87;;;21.60;99.90;;;;;;4890782;29;20537;-71
2022/08/15 16:18:01;;;;;;;13.20;11.90;;;21.60;99.90;;;;;;4898001;29;20476;-70
2022/08/15 16:20:32;;;;;;;14.17;12.77;;;21.50;99.90;;;;;;4894669;29;20829;-70
2022/08/15 16:23:05;;;;;;;13.07;11.97;;;21.50;99.90;;;;;;4892441;29;20471;-70
2022/08/15 16:25:37;;;;;;;13.63;12.43;;;21.50;99.90;;;;;;4898233;29;20488;-70
2022/08/15 16:28:08;;;;;;;12.60;11.50;;;21.50;99.90;;;;;;4896015;29;20795;-70
2022/08/15 16:30:41;;;;;;;13.00;11.80;;;21.40;99.90;;;;;;4897101;29;20499;-70
2022/08/15 16:33:13;;;;;;;12.90;11.60;;;21.30;99.90;;;;;;4892231;29;20539;-70
2022/08/15 16:35:42;;;;;;;11.73;10.73;;;21.10;99.90;;;;;;4894306;29;20605;-70
2022/08/15 16:38:16;;;;;;;13.73;12.53;;;21.10;99.90;;;;;;4896394;29;20579;-70
2022/08/15 16:40:47;;;;;;;13.20;11.90;;;21.00;99.90;;;;;;4895950;29;20530;-70
2022/08/15 16:43:18;;;;;;;14.30;12.97;;;21.10;99.90;;;;;;4897328;29;20476;-70
2022/08/15 16:45:55;;;;;;;15.30;13.90;;;21.10;99.90;;;;;;4893983;29;20491;-70
2022/08/15 16:48:33;;;;;;;13.07;11.97;;;21.10;99.90;;;;;;4892848;29;20542;-70
2022/08/15 16:51:07;;;;;;;12.10;11.10;;;21.10;99.90;;;;;;4896764;29;20491;-70
2022/08/15 16:53:45;;;;;;;11.93;11.07;;;21.20;99.90;;;;;;4894284;29;20492;-69
2022/08/15 16:56:22;;;;;;;12.23;11.23;;;21.20;99.90;;;;;;4887610;29;20500;-69
2022/08/15 16:58:57;;;;;;;12.53;11.43;;;21.30;99.90;;;;;;4894402;29;21008;-70
2022/08/15 17:01:43;;;;;;;13.43;12.27;;;21.30;99.90;;;;;;4897147;29;20485;-71
2022/08/15 17:04:31;;;;;;;13.50;12.40;;;21.30;99.90;;;;;;4894611;29;21092;-70
2022/08/15 17:07:02;;;;;;;12.27;11.37;;;21.20;99.90;;;;;;4891964;29;20565;-71
2022/08/15 17:09:38;;;;;;;13.73;12.27;;;21.10;99.90;;;;;;4892432;29;20527;-71
2022/08/15 17:12:14;;;;;;;14.83;13.30;;;21.10;99.90;;;;;;4894418;29;20479;-72